createdAt,value
2022-10-22T00:00:52.827Z,14.20
2022-10-22T00:03:22.517Z,14.13
2022-10-22T00:05:50.934Z,14.08
2022-10-22T00:08:19.430Z,13.99
2022-10-22T00:10:48.059Z,13.98
2022-10-22T00:13:16.747Z,13.89
2022-10-22T00:15:45.539Z,13.82
2022-10-22T00:18:14.009Z,13.80
2022-10-22T00:20:43.502Z,13.78
2022-10-22T00:23:12.155Z,13.73
2022-10-22T00:25:40.896Z,13.74
2022-10-22T00:28:11.273Z,13.69
2022-10-22T00:30:40.010Z,13.74
2022-10-22T00:33:08.656Z,13.73
2022-10-22T00:35:37.305Z,13.74
2022-10-22T00:38:06.123Z,13.67
2022-10-22T00:40:34.797Z,13.66
2022-10-22T00:43:03.244Z,13.63
2022-10-22T00:45:31.784Z,13.61
2022-10-22T00:48:04.871Z,13.57
2022-10-22T00:50:35.056Z,13.56
2022-10-22T00:53:04.157Z,13.50
2022-10-22T00:55:32.757Z,13.53
2022-10-22T00:58:01.288Z,13.43
2022-10-22T01:00:30.952Z,13.42
2022-10-22T01:02:59.661Z,13.36
2022-10-22T01:05:29.402Z,13.30
2022-10-22T01:07:57.966Z,13.33
2022-10-22T01:10:44.796Z,13.32
2022-10-22T01:13:14.917Z,13.42
2022-10-22T01:15:48.352Z,13.47
2022-10-22T01:18:21.221Z,13.53
2022-10-22T01:20:54.345Z,13.44
2022-10-22T01:23:44.375Z,13.52
2022-10-22T01:26:31.296Z,13.56
2022-10-22T01:29:03.991Z,13.63
2022-10-22T01:31:33.592Z,13.73
2022-10-22T01:34:02.186Z,13.82
2022-10-22T01:36:31.157Z,13.86
2022-10-22T01:38:59.946Z,13.96
2022-10-22T01:41:29.253Z,13.93
2022-10-22T01:43:57.964Z,13.97
2022-10-22T01:46:27.830Z,13.92
2022-10-22T01:49:11.732Z,14.08
2022-10-22T01:51:45.026Z,14.03
2022-10-22T01:54:24.222Z,14.07
2022-10-22T01:56:54.442Z,14.02
2022-10-22T01:59:30.932Z,14.01
2022-10-22T02:02:07.281Z,14.06
2022-10-22T02:04:40.182Z,14.00
2022-10-22T02:07:09.123Z,14.05
2022-10-22T02:09:37.606Z,14.05
2022-10-22T02:12:06.946Z,14.09
2022-10-22T02:14:36.025Z,14.07
2022-10-22T02:17:04.618Z,14.09
2022-10-22T02:19:34.739Z,14.09
2022-10-22T02:22:03.223Z,14.19
2022-10-22T02:24:31.909Z,14.16
2022-10-22T02:27:15.118Z,14.14
2022-10-22T02:29:57.441Z,14.13
2022-10-22T02:32:27.152Z,14.08
2022-10-22T02:34:55.687Z,14.07
2022-10-22T02:37:26.431Z,14.06
2022-10-22T02:39:54.704Z,14.07
2022-10-22T02:42:25.357Z,14.05
2022-10-22T02:44:53.924Z,14.18
2022-10-22T02:47:22.444Z,14.10
2022-10-22T02:49:52.272Z,14.01
2022-10-22T02:52:20.717Z,13.97
2022-10-22T02:54:49.226Z,14.00
2022-10-22T02:57:17.976Z,14.00
2022-10-22T02:59:46.626Z,13.93
2022-10-22T03:02:16.021Z,13.90
2022-10-22T03:04:46.590Z,13.90
2022-10-22T03:07:15.123Z,13.92
2022-10-22T03:09:43.603Z,13.95
2022-10-22T03:12:12.084Z,13.94
2022-10-22T03:14:40.509Z,13.94
2022-10-22T03:17:09.035Z,13.94
2022-10-22T03:19:37.551Z,13.93
2022-10-22T03:22:07.150Z,13.96
2022-10-22T03:24:40.320Z,13.90
2022-10-22T03:27:09.022Z,13.92
2022-10-22T03:29:38.610Z,13.94
2022-10-22T03:32:07.198Z,13.94
2022-10-22T03:34:35.608Z,13.95
2022-10-22T03:37:04.114Z,13.93
2022-10-22T03:39:32.918Z,13.88
2022-10-22T03:42:01.636Z,13.81
2022-10-22T03:44:30.374Z,13.75
2022-10-22T03:47:01.750Z,13.66
2022-10-22T03:49:28.999Z,13.62
2022-10-22T03:51:57.608Z,13.64
2022-10-22T03:54:26.249Z,13.62
2022-10-22T03:56:54.704Z,13.60
2022-10-22T03:59:23.261Z,13.61
2022-10-22T04:01:51.692Z,13.57
2022-10-22T04:04:20.284Z,13.55
2022-10-22T04:06:49.011Z,13.56
2022-10-22T04:09:17.512Z,13.54
2022-10-22T04:11:46.076Z,13.51
2022-10-22T04:14:14.522Z,13.47
2022-10-22T04:16:43.349Z,13.46
2022-10-22T04:19:12.143Z,13.53
2022-10-22T04:21:40.723Z,13.58
2022-10-22T04:24:09.202Z,13.52
2022-10-22T04:26:37.786Z,13.51
2022-10-22T04:29:10.553Z,13.50
2022-10-22T04:31:37.173Z,13.45
2022-10-22T04:34:05.853Z,13.43
2022-10-22T04:36:35.918Z,13.41
2022-10-22T04:39:04.700Z,13.45
2022-10-22T04:41:34.409Z,13.42
2022-10-22T04:44:02.892Z,13.53
2022-10-22T04:46:32.555Z,13.60
2022-10-22T04:49:02.722Z,13.63
2022-10-22T04:51:31.614Z,13.67
2022-10-22T04:53:59.947Z,13.61
2022-10-22T04:56:29.625Z,13.65
2022-10-22T04:58:59.741Z,13.66
2022-10-22T05:01:29.495Z,13.62
2022-10-22T05:03:58.821Z,13.60
2022-10-22T05:06:28.036Z,13.60
2022-10-22T05:08:57.507Z,13.62
2022-10-22T05:11:28.311Z,13.63
2022-10-22T05:13:57.384Z,13.63
2022-10-22T05:16:26.072Z,13.61
2022-10-22T05:18:54.752Z,13.65
2022-10-22T05:21:23.350Z,13.64
2022-10-22T05:23:51.941Z,13.64
2022-10-22T05:26:20.655Z,13.75
2022-10-22T05:28:49.650Z,13.73
2022-10-22T05:31:18.369Z,13.84
2022-10-22T05:33:47.181Z,13.75
2022-10-22T05:36:20.098Z,13.77
2022-10-22T05:38:48.719Z,13.81
2022-10-22T05:41:18.934Z,13.79
2022-10-22T05:43:47.671Z,13.74
2022-10-22T05:46:22.228Z,13.68
2022-10-22T05:48:51.522Z,13.65
2022-10-22T05:51:20.206Z,13.67
2022-10-22T05:53:50.329Z,13.60
2022-10-22T05:56:18.966Z,13.61
2022-10-22T05:58:47.490Z,13.58
2022-10-22T06:01:17.450Z,13.55
2022-10-22T06:03:46.367Z,13.56
2022-10-22T06:06:34.309Z,13.54
2022-10-22T06:09:10.309Z,13.52
2022-10-22T06:11:39.080Z,13.59
2022-10-22T06:14:07.521Z,13.53
2022-10-22T06:16:35.963Z,13.54
2022-10-22T06:19:05.252Z,13.49
2022-10-22T06:21:33.736Z,13.42
2022-10-22T06:24:02.453Z,13.47
2022-10-22T06:26:31.316Z,13.47
2022-10-22T06:29:00.462Z,13.43
2022-10-22T06:31:29.087Z,13.44
2022-10-22T06:33:58.047Z,13.51
2022-10-22T06:36:26.731Z,13.57
2022-10-22T06:38:55.832Z,13.62
2022-10-22T06:41:28.554Z,13.70
2022-10-22T06:43:55.801Z,13.69
2022-10-22T06:46:26.030Z,13.79
2022-10-22T06:48:56.179Z,13.92
2022-10-22T06:51:24.688Z,13.96
2022-10-22T06:53:53.679Z,14.10
2022-10-22T06:56:22.947Z,14.11
2022-10-22T06:58:51.970Z,14.17
2022-10-22T07:01:21.360Z,14.16
2022-10-22T07:03:51.551Z,14.11
2022-10-22T07:06:20.297Z,14.17
2022-10-22T07:08:48.834Z,14.18
2022-10-22T07:11:18.478Z,14.11
2022-10-22T07:13:47.368Z,14.04
2022-10-22T07:16:16.165Z,14.10
2022-10-22T07:18:45.014Z,14.14
2022-10-22T07:21:13.922Z,14.11
2022-10-22T07:23:42.362Z,14.07
2022-10-22T07:26:12.373Z,14.07
2022-10-22T07:28:41.364Z,14.12
2022-10-22T07:31:10.367Z,14.16
2022-10-22T07:33:39.065Z,14.24
2022-10-22T07:36:08.870Z,14.23
2022-10-22T07:38:37.667Z,14.41
2022-10-22T07:41:06.602Z,14.54
2022-10-22T07:43:35.185Z,14.40
2022-10-22T07:46:03.755Z,14.41
2022-10-22T07:48:32.254Z,14.48
2022-10-22T07:51:00.629Z,14.55
2022-10-22T07:53:29.066Z,14.59
2022-10-22T07:55:57.596Z,14.58
2022-10-22T07:58:26.242Z,14.63
2022-10-22T08:00:58.277Z,14.67
2022-10-22T08:03:26.929Z,14.84
2022-10-22T08:05:55.557Z,14.97
2022-10-22T08:08:27.169Z,15.15
2022-10-22T08:10:54.527Z,15.27
2022-10-22T08:13:23.894Z,15.32
2022-10-22T08:15:56.421Z,15.26
2022-10-22T08:18:22.939Z,15.50
2022-10-22T08:20:52.167Z,15.54
2022-10-22T08:23:24.493Z,15.63
2022-10-22T08:25:51.050Z,15.64
2022-10-22T08:28:21.288Z,15.67
2022-10-22T08:30:49.989Z,15.66
2022-10-22T08:33:18.615Z,15.57
2022-10-22T08:35:49.038Z,15.44
2022-10-22T08:38:18.112Z,15.61
2022-10-22T08:43:30.914Z,15.84
2022-10-22T08:46:00.998Z,15.74
2022-10-22T08:48:31.206Z,15.58
2022-10-22T08:50:59.883Z,15.58
2022-10-22T08:53:42.340Z,15.59
2022-10-22T08:56:12.260Z,15.59
2022-10-22T08:58:51.568Z,15.65
2022-10-22T09:01:23.315Z,15.68
2022-10-22T09:03:53.394Z,16.06
2022-10-22T09:06:26.031Z,16.37
2022-10-22T09:08:54.692Z,16.35
2022-10-22T09:11:36.953Z,16.37
2022-10-22T09:14:05.610Z,16.52
2022-10-22T09:16:38.840Z,16.36
2022-10-22T09:19:27.105Z,16.25
2022-10-22T09:21:57.294Z,16.12
2022-10-22T09:24:32.277Z,16.23
2022-10-22T09:27:14.960Z,16.13
2022-10-22T09:29:44.249Z,16.20
2022-10-22T09:32:12.925Z,16.31
2022-10-22T09:34:41.391Z,16.74
2022-10-22T09:37:10.383Z,16.93
2022-10-22T09:39:44.037Z,17.80
2022-10-22T09:42:13.202Z,19.41
2022-10-22T09:44:44.922Z,20.30
2022-10-22T09:47:42.985Z,21.34
2022-10-22T09:50:19.916Z,21.05
2022-10-22T09:53:02.302Z,19.86
2022-10-22T09:55:30.933Z,19.00
2022-10-22T09:58:00.365Z,18.58
2022-10-22T10:00:30.374Z,18.26
2022-10-22T10:02:59.421Z,18.24
2022-10-22T10:05:29.633Z,17.58
2022-10-22T10:07:58.302Z,17.71
2022-10-22T10:10:28.689Z,18.20
2022-10-22T10:13:04.713Z,18.16
2022-10-22T10:15:39.889Z,17.94
2022-10-22T10:18:27.134Z,17.91
2022-10-22T10:20:57.294Z,19.25
2022-10-22T10:23:27.463Z,19.86
2022-10-22T10:26:03.637Z,20.65
2022-10-22T10:28:33.854Z,19.73
2022-10-22T10:31:22.039Z,20.69
2022-10-22T10:33:52.032Z,21.48
2022-10-22T10:36:22.085Z,21.05
2022-10-22T10:39:01.416Z,19.66
2022-10-22T10:41:34.677Z,19.25
2022-10-22T10:44:13.873Z,20.10
2022-10-22T10:46:46.778Z,21.18
2022-10-22T10:49:19.723Z,19.40
2022-10-22T10:51:53.023Z,19.41
2022-10-22T10:54:26.709Z,20.33
2022-10-22T10:56:59.392Z,19.61
2022-10-22T10:59:42.003Z,19.10
2022-10-22T11:02:20.980Z,20.00
2022-10-22T11:05:09.684Z,20.95
2022-10-22T11:07:42.849Z,20.30
2022-10-22T11:10:22.317Z,20.65
2022-10-22T11:12:52.439Z,20.04
2022-10-22T11:15:32.438Z,20.60
2022-10-22T11:18:14.489Z,20.36
2022-10-22T11:20:45.068Z,19.60
2022-10-22T11:23:20.625Z,18.99
2022-10-22T11:25:49.216Z,19.29
2022-10-22T11:28:25.306Z,20.22
2022-10-22T11:30:55.411Z,20.38
2022-10-22T11:33:25.380Z,20.21
2022-10-22T11:35:53.888Z,19.31
2022-10-22T11:38:23.741Z,18.90
2022-10-22T11:40:53.533Z,18.71
2022-10-22T11:43:29.627Z,18.34
2022-10-22T11:45:59.713Z,18.23
2022-10-22T11:48:28.889Z,18.33
2022-10-22T11:50:59.626Z,18.09
2022-10-22T11:53:30.621Z,18.09
2022-10-22T11:56:10.744Z,18.37
2022-10-22T11:58:42.484Z,18.74
2022-10-22T12:01:12.652Z,18.93
2022-10-22T12:03:44.099Z,19.60
2022-10-22T12:06:18.316Z,19.39
2022-10-22T12:08:48.651Z,18.96
2022-10-22T12:11:18.261Z,18.56
2022-10-22T12:14:06.605Z,18.22
2022-10-22T12:19:19.669Z,18.02
2022-10-22T12:21:49.301Z,17.79
2022-10-22T12:24:18.839Z,17.76
2022-10-22T12:26:49.313Z,17.74
2022-10-22T12:29:17.998Z,17.80
2022-10-22T12:31:47.135Z,17.75
2022-10-22T12:34:17.140Z,17.90
2022-10-22T12:36:45.830Z,18.09
2022-10-22T12:39:15.772Z,18.72
2022-10-22T12:41:44.882Z,18.94
2022-10-22T12:44:14.735Z,19.17
2022-10-22T12:46:43.650Z,18.62
2022-10-22T12:49:16.312Z,18.47
2022-10-22T12:51:45.010Z,18.66
2022-10-22T12:54:15.043Z,19.01
2022-10-22T12:56:43.519Z,19.35
2022-10-22T12:59:16.626Z,19.59
2022-10-22T13:01:45.120Z,19.84
2022-10-22T13:04:15.130Z,19.45
2022-10-22T13:06:47.184Z,18.74
2022-10-22T13:09:17.335Z,18.15
2022-10-22T13:11:50.455Z,17.91
2022-10-22T13:14:21.514Z,17.61
2022-10-22T13:17:08.786Z,17.57
2022-10-22T13:19:38.322Z,17.48
2022-10-22T13:22:08.690Z,17.37
2022-10-22T13:24:38.813Z,17.29
2022-10-22T13:27:08.651Z,17.44
2022-10-22T13:29:38.486Z,17.37
2022-10-22T13:32:08.682Z,17.32
2022-10-22T13:34:37.367Z,17.34
2022-10-22T13:37:06.780Z,17.33
2022-10-22T13:39:37.001Z,17.29
2022-10-22T13:42:08.299Z,17.37
2022-10-22T13:44:36.797Z,17.29
2022-10-22T13:47:06.866Z,17.28
2022-10-22T13:49:35.327Z,17.16
2022-10-22T13:52:04.194Z,17.05
2022-10-22T13:54:32.782Z,17.16
2022-10-22T13:57:01.336Z,17.53
2022-10-22T13:59:29.943Z,17.71
2022-10-22T14:01:58.708Z,17.55
2022-10-22T14:04:27.190Z,17.50
2022-10-22T14:06:57.683Z,17.39
2022-10-22T14:09:25.840Z,17.26
2022-10-22T14:11:54.465Z,17.12
2022-10-22T14:14:22.996Z,17.03
2022-10-22T14:16:51.494Z,17.09
2022-10-22T14:19:19.921Z,17.28
2022-10-22T14:21:49.293Z,17.43
2022-10-22T14:24:17.851Z,17.56
2022-10-22T14:26:46.569Z,17.55
2022-10-22T14:29:15.083Z,17.71
2022-10-22T14:31:44.562Z,18.11
2022-10-22T14:34:14.763Z,18.19
2022-10-22T14:36:44.925Z,18.36
2022-10-22T14:39:14.113Z,18.22
2022-10-22T14:41:42.641Z,18.08
2022-10-22T14:44:14.319Z,18.14
2022-10-22T14:46:46.397Z,18.00
2022-10-22T14:49:14.842Z,17.99
2022-10-22T14:51:43.373Z,17.81
2022-10-22T14:54:12.040Z,17.80
2022-10-22T14:56:40.723Z,17.60
2022-10-22T14:59:09.391Z,17.63
2022-10-22T15:01:40.948Z,17.50
2022-10-22T15:04:09.349Z,17.40
2022-10-22T15:06:37.867Z,17.41
2022-10-22T15:09:08.187Z,17.41
2022-10-22T16:52:16.032Z,19.70
2022-10-22T16:54:46.757Z,19.51
2022-10-22T16:57:16.057Z,19.44
2022-10-22T16:59:45.475Z,20.48
2022-10-22T17:02:14.831Z,19.23
2022-10-22T17:04:44.264Z,19.83
2022-10-22T17:07:13.546Z,19.49
2022-10-22T17:12:08.233Z,19.35
2022-10-22T17:14:37.702Z,18.82
2022-10-22T17:17:06.935Z,18.56
2022-10-22T17:19:37.955Z,18.45
2022-10-22T17:22:07.186Z,18.38
2022-10-22T17:24:36.514Z,18.33
2022-10-22T17:27:05.750Z,18.30
2022-10-22T17:29:36.486Z,18.28
2022-10-22T17:32:06.067Z,18.25
2022-10-22T17:34:35.334Z,18.22
2022-10-22T17:37:04.581Z,18.21
2022-10-22T17:39:33.829Z,18.19
2022-10-22T17:42:03.067Z,18.17
2022-10-22T17:44:32.322Z,18.16
2022-10-22T17:47:01.773Z,18.13
2022-10-22T17:49:31.138Z,18.13
2022-10-22T17:54:30.345Z,18.09
2022-10-22T17:56:59.847Z,18.07
2022-10-22T17:59:29.284Z,18.06
2022-10-22T18:02:00.338Z,18.04
2022-10-22T18:04:31.203Z,18.04
2022-10-22T18:07:00.806Z,18.02
2022-10-22T18:09:30.111Z,18.00
2022-10-22T18:11:59.340Z,17.99
2022-10-22T18:14:28.749Z,17.98
2022-10-22T18:16:58.149Z,17.97
2022-10-22T18:19:27.388Z,17.95
2022-10-22T18:21:56.718Z,17.95
2022-10-22T18:24:25.988Z,17.95
2022-10-22T18:26:55.269Z,17.92
2022-10-22T18:29:24.530Z,17.90
2022-10-22T18:31:53.806Z,17.90
2022-10-22T18:34:24.025Z,17.88
2022-10-22T18:36:53.435Z,17.88
2022-10-22T18:39:23.012Z,17.87
2022-10-22T18:41:52.246Z,17.86
2022-10-22T18:44:23.130Z,17.86
2022-10-22T18:46:52.441Z,17.85
2022-10-22T18:49:21.755Z,17.85
2022-10-22T18:51:52.870Z,17.84
2022-10-22T18:54:24.243Z,17.83
2022-10-22T18:56:59.325Z,17.82
2022-10-22T18:59:28.453Z,17.81
2022-10-22T19:01:59.626Z,17.81
2022-10-22T19:04:32.398Z,17.79
2022-10-22T19:07:01.799Z,17.78
2022-10-22T19:09:31.402Z,17.80
2022-10-22T19:12:01.174Z,17.77
2022-10-22T19:14:30.419Z,17.77
2022-10-22T19:16:59.709Z,17.77
2022-10-22T19:19:29.171Z,17.76
2022-10-22T19:21:59.518Z,17.75
2022-10-22T19:24:29.971Z,17.74
2022-10-22T19:26:59.213Z,17.74
2022-10-22T19:29:28.708Z,17.74
2022-10-22T19:31:58.033Z,17.73
2022-10-22T19:34:27.406Z,17.73
2022-10-22T19:36:56.673Z,17.73
2022-10-22T19:39:26.081Z,17.72
2022-10-22T19:41:55.418Z,17.71
2022-10-22T19:44:24.710Z,17.70
2022-10-22T19:46:54.217Z,17.71
2022-10-22T19:49:23.734Z,17.71
2022-10-22T19:51:52.985Z,17.70
2022-10-22T19:54:22.552Z,17.69
2022-10-22T19:56:51.892Z,17.69
2022-10-22T19:59:22.861Z,17.69
2022-10-22T20:01:52.062Z,17.68
2022-10-22T20:04:23.069Z,17.68
2022-10-22T20:06:52.309Z,17.68
2022-10-22T20:09:21.950Z,17.65
2022-10-22T20:11:51.275Z,17.66
2022-10-22T20:14:20.713Z,17.67
2022-10-22T20:16:50.305Z,17.65
2022-10-22T20:19:19.683Z,17.65
2022-10-22T20:21:50.457Z,17.65
2022-10-22T20:24:19.764Z,17.65
2022-10-22T20:26:49.216Z,17.64
2022-10-22T20:29:19.130Z,17.63
2022-10-22T20:31:48.693Z,17.64
2022-10-22T20:34:18.390Z,17.62
2022-10-22T20:36:47.897Z,17.63
2022-10-22T20:39:17.282Z,17.63
2022-10-22T20:41:46.808Z,17.62
2022-10-22T20:44:18.276Z,17.62
2022-10-22T20:46:47.750Z,17.61
2022-10-22T20:49:17.556Z,17.61
2022-10-22T20:51:47.067Z,17.60
2022-10-22T20:54:16.803Z,17.59
2022-10-22T20:56:47.818Z,17.60
2022-10-22T20:59:17.244Z,17.59
2022-10-22T21:01:49.154Z,17.59
2022-10-22T21:04:19.810Z,17.58
2022-10-22T21:06:50.456Z,17.58
2022-10-22T21:09:20.352Z,17.58
2022-10-22T21:11:50.055Z,17.57
2022-10-22T21:14:21.966Z,17.58
2022-10-22T21:16:52.080Z,17.57
2022-10-22T21:19:22.950Z,17.56
2022-10-22T21:21:52.446Z,17.57
2022-10-22T21:24:23.402Z,17.55
2022-10-22T21:26:53.278Z,17.56
2022-10-22T21:29:22.859Z,17.56
2022-10-22T21:31:53.851Z,17.55
2022-10-22T21:34:23.106Z,17.55
2022-10-22T21:36:52.913Z,17.55
2022-10-22T21:39:22.220Z,17.54
2022-10-22T21:41:51.650Z,17.55
2022-10-22T21:44:20.904Z,17.53
2022-10-22T21:46:50.350Z,17.54
2022-10-22T21:49:19.700Z,17.53
2022-10-22T21:51:49.077Z,17.54
2022-10-22T21:54:18.493Z,17.53
2022-10-22T21:56:49.103Z,17.53
2022-10-22T21:59:18.383Z,17.52
2022-10-22T22:01:47.720Z,17.52
2022-10-22T22:04:17.035Z,17.52
2022-10-22T22:06:46.357Z,17.52
2022-10-22T22:09:15.801Z,17.52
2022-10-22T22:11:45.180Z,17.51
2022-10-22T22:14:16.179Z,17.51
2022-10-22T22:16:45.428Z,17.51
2022-10-22T22:19:15.310Z,17.51
2022-10-22T22:21:44.625Z,17.51
2022-10-22T22:24:14.488Z,17.51
2022-10-22T22:26:43.949Z,17.50
2022-10-22T22:29:13.350Z,17.49
2022-10-22T22:31:43.797Z,17.49
2022-10-22T22:34:15.879Z,17.50
2022-10-22T22:36:47.251Z,17.49
2022-10-22T22:39:19.562Z,17.50
2022-10-22T22:41:48.994Z,17.49
2022-10-22T22:44:18.806Z,17.48
2022-10-22T22:46:48.134Z,17.50
2022-10-22T22:49:17.631Z,17.49
2022-10-22T22:51:47.039Z,17.48
2022-10-22T22:54:16.393Z,17.48
2022-10-22T22:56:45.951Z,17.48
2022-10-22T22:59:15.196Z,17.48
2022-10-22T23:01:45.548Z,17.48
2022-10-22T23:04:20.591Z,17.47
2022-10-22T23:06:50.453Z,17.48
2022-10-22T23:11:51.230Z,17.46
2022-10-22T23:14:21.421Z,17.46
2022-10-22T23:16:52.246Z,17.46
2022-10-22T23:19:23.113Z,17.47
2022-10-22T23:21:55.009Z,17.46
2022-10-22T23:24:26.753Z,17.46
2022-10-22T23:26:57.541Z,17.45
2022-10-22T23:29:28.597Z,17.45
2022-10-22T23:32:02.992Z,17.45
2022-10-22T23:34:33.186Z,17.46
2022-10-22T23:37:02.687Z,17.46
2022-10-22T23:39:32.045Z,17.45
2022-10-22T23:42:01.383Z,17.45
2022-10-22T23:44:30.897Z,17.45
2022-10-22T23:47:00.296Z,17.44
2022-10-22T23:49:29.551Z,17.44
2022-10-22T23:51:58.774Z,17.44
2022-10-22T23:54:28.185Z,17.44
2022-10-22T23:56:57.418Z,17.44
2022-10-22T23:59:26.892Z,17.44
